sensor_id;sensor_type;location;lat;lon;timestamp;pressure;altitude;pressure_sealevel;temperature;humidity
48778;BME280;34578;0.000;0.000;2022-07-29T00:00:43;96477.84;;;20.05;71.92
48778;BME280;34578;0.000;0.000;2022-07-29T00:05:44;96471.81;;;20.15;71.66
48778;BME280;34578;0.000;0.000;2022-07-29T00:10:45;96470.13;;;20.17;71.51
48778;BME280;34578;0.000;0.000;2022-07-29T00:15:45;96474.34;;;20.16;71.38
48778;BME280;34578;0.000;0.000;2022-07-29T00:20:45;96475.25;;;20.11;71.51
48778;BME280;34578;0.000;0.000;2022-07-29T00:25:46;96474.38;;;20.12;71.53
48778;BME280;34578;0.000;0.000;2022-07-29T00:30:46;96465.91;;;20.14;71.24
48778;BME280;34578;0.000;0.000;2022-07-29T00:35:46;96459.19;;;20.03;71.51
48778;BME280;34578;0.000;0.000;2022-07-29T00:40:47;96462.66;;;19.97;72.06
48778;BME280;34578;0.000;0.000;2022-07-29T00:45:48;96461.78;;;20.00;71.60
48778;BME280;34578;0.000;0.000;2022-07-29T00:50:49;96453.25;;;20.02;71.35
48778;BME280;34578;0.000;0.000;2022-07-29T00:55:50;96461.78;;;20.04;70.83
48778;BME280;34578;0.000;0.000;2022-07-29T01:00:50;96455.91;;;19.93;70.91
48778;BME280;34578;0.000;0.000;2022-07-29T01:05:51;96456.66;;;20.03;70.50
48778;BME280;34578;0.000;0.000;2022-07-29T01:10:53;96457.53;;;19.99;70.43
48778;BME280;34578;0.000;0.000;2022-07-29T01:15:58;96456.84;;;19.82;71.10
48778;BME280;34578;0.000;0.000;2022-07-29T01:31:26;96439.03;;;19.88;70.74
48778;BME280;34578;0.000;0.000;2022-07-29T01:36:43;96451.78;;;19.85;70.21
48778;BME280;34578;0.000;0.000;2022-07-29T01:42:20;96450.91;;;19.86;70.05
48778;BME280;34578;0.000;0.000;2022-07-29T01:47:28;96450.06;;;19.85;69.50
48778;BME280;34578;0.000;0.000;2022-07-29T01:52:46;96442.47;;;19.81;69.54
48778;BME280;34578;0.000;0.000;2022-07-29T01:57:50;96452.69;;;19.78;69.70
48778;BME280;34578;0.000;0.000;2022-07-29T02:02:53;96447.66;;;19.72;70.13
48778;BME280;34578;0.000;0.000;2022-07-29T02:07:55;96449.31;;;19.73;70.34
48778;BME280;34578;0.000;0.000;2022-07-29T02:12:57;96441.69;;;19.74;70.03
48778;BME280;34578;0.000;0.000;2022-07-29T02:18:02;96456.06;;;19.77;69.81
48778;BME280;34578;0.000;0.000;2022-07-29T02:23:03;96452.81;;;19.66;69.99
48778;BME280;34578;0.000;0.000;2022-07-29T02:28:05;96444.25;;;19.73;69.50
48778;BME280;34578;0.000;0.000;2022-07-29T02:33:08;96456.13;;;19.71;69.42
48778;BME280;34578;0.000;0.000;2022-07-29T02:38:13;96461.25;;;19.68;69.57
48778;BME280;34578;0.000;0.000;2022-07-29T02:43:34;96448.53;;;19.66;69.30
48778;BME280;34578;0.000;0.000;2022-07-29T02:48:50;96459.59;;;19.61;69.92
48778;BME280;34578;0.000;0.000;2022-07-29T02:53:54;96446.06;;;19.62;69.53
48778;BME280;34578;0.000;0.000;2022-07-29T02:59:01;96452.75;;;19.69;69.37
48778;BME280;34578;0.000;0.000;2022-07-29T03:04:04;96458.78;;;19.57;69.70
48778;BME280;34578;0.000;0.000;2022-07-29T03:09:10;96449.50;;;19.55;69.36
48778;BME280;34578;0.000;0.000;2022-07-29T03:14:11;96454.53;;;19.59;69.60
48778;BME280;34578;0.000;0.000;2022-07-29T03:19:13;96442.78;;;19.51;69.45
48778;BME280;34578;0.000;0.000;2022-07-29T03:24:28;96445.28;;;19.52;69.18
48778;BME280;34578;0.000;0.000;2022-07-29T03:29:28;96439.38;;;19.52;68.42
48778;BME280;34578;0.000;0.000;2022-07-29T03:34:29;96438.47;;;19.56;68.98
48778;BME280;34578;0.000;0.000;2022-07-29T03:39:33;96449.50;;;19.55;68.52
48778;BME280;34578;0.000;0.000;2022-07-29T03:44:36;96433.53;;;19.42;68.49
48778;BME280;34578;0.000;0.000;2022-07-29T03:49:39;96449.50;;;19.55;67.90
48778;BME280;34578;0.000;0.000;2022-07-29T03:54:40;96452.94;;;19.51;67.94
48778;BME280;34578;0.000;0.000;2022-07-29T03:59:42;96446.22;;;19.44;68.66
48778;BME280;34578;0.000;0.000;2022-07-29T04:04:43;96446.25;;;19.41;68.41
48778;BME280;34578;0.000;0.000;2022-07-29T04:09:43;96438.66;;;19.36;67.61
48778;BME280;34578;0.000;0.000;2022-07-29T04:14:44;96453.78;;;19.50;67.74
48778;BME280;34578;0.000;0.000;2022-07-29T04:19:44;96451.16;;;19.56;67.77
48778;BME280;34578;0.000;0.000;2022-07-29T04:24:45;96459.72;;;19.49;67.49
48778;BME280;34578;0.000;0.000;2022-07-29T04:29:45;96464.81;;;19.49;67.24
48778;BME280;34578;0.000;0.000;2022-07-29T04:34:45;96461.38;;;19.53;67.62
48778;BME280;34578;0.000;0.000;2022-07-29T04:39:46;96458.88;;;19.48;66.94
48778;BME280;34578;0.000;0.000;2022-07-29T04:44:47;96462.22;;;19.53;67.25
48778;BME280;34578;0.000;0.000;2022-07-29T04:49:47;96471.56;;;19.47;66.92
48778;BME280;34578;0.000;0.000;2022-07-29T04:54:48;96468.16;;;19.51;67.05
48778;BME280;34578;0.000;0.000;2022-07-29T04:59:48;96467.31;;;19.53;67.08
48778;BME280;34578;0.000;0.000;2022-07-29T05:04:49;96478.31;;;19.51;67.77
48778;BME280;34578;0.000;0.000;2022-07-29T05:09:49;96481.72;;;19.50;67.64
48778;BME280;34578;0.000;0.000;2022-07-29T05:14:49;96481.69;;;19.51;68.05
48778;BME280;34578;0.000;0.000;2022-07-29T05:19:50;96490.19;;;19.49;67.94
48778;BME280;34578;0.000;0.000;2022-07-29T05:24:51;96481.63;;;19.59;67.89
48778;BME280;34578;0.000;0.000;2022-07-29T05:29:51;96490.13;;;19.58;68.13
48778;BME280;34578;0.000;0.000;2022-07-29T05:34:52;96494.31;;;19.60;67.99
48778;BME280;34578;0.000;0.000;2022-07-29T05:39:52;96495.97;;;19.63;67.72
48778;BME280;34578;0.000;0.000;2022-07-29T05:44:53;96501.97;;;19.59;68.21
48778;BME280;34578;0.000;0.000;2022-07-29T05:49:53;96522.19;;;19.65;68.31
48778;BME280;34578;0.000;0.000;2022-07-29T05:54:54;96522.25;;;19.63;68.47
48778;BME280;34578;0.000;0.000;2022-07-29T05:59:54;96526.47;;;19.63;68.35
48778;BME280;34578;0.000;0.000;2022-07-29T06:04:54;96533.06;;;19.83;67.80
48778;BME280;34578;0.000;0.000;2022-07-29T06:09:55;96534.78;;;19.80;68.10
48778;BME280;34578;0.000;0.000;2022-07-29T06:14:55;96539.88;;;19.83;68.63
48778;BME280;34578;0.000;0.000;2022-07-29T06:19:55;96528.84;;;19.84;69.00
48778;BME280;34578;0.000;0.000;2022-07-29T06:24:56;96532.16;;;19.92;68.81
48778;BME280;34578;0.000;0.000;2022-07-29T06:29:56;96538.84;;;20.08;68.77
48778;BME280;34578;0.000;0.000;2022-07-29T06:34:56;96542.16;;;20.13;68.30
48778;BME280;34578;0.000;0.000;2022-07-29T06:39:57;96548.97;;;20.12;68.58
48778;BME280;34578;0.000;0.000;2022-07-29T06:45:16;96546.28;;;20.26;68.06
48778;BME280;34578;0.000;0.000;2022-07-29T06:50:16;96546.28;;;20.26;68.62
48778;BME280;34578;0.000;0.000;2022-07-29T06:55:16;96549.59;;;20.34;68.06
48778;BME280;34578;0.000;0.000;2022-07-29T07:00:19;96550.41;;;20.36;68.36
48778;BME280;34578;0.000;0.000;2022-07-29T07:05:19;96552.06;;;20.39;67.88
48778;BME280;34578;0.000;0.000;2022-07-29T07:10:20;96550.34;;;20.42;68.36
48778;BME280;34578;0.000;0.000;2022-07-29T07:15:20;96565.56;;;20.43;68.67
48778;BME280;34578;0.000;0.000;2022-07-29T07:20:24;96565.56;;;20.44;68.77
48778;BME280;34578;0.000;0.000;2022-07-29T07:25:25;96574.84;;;20.48;68.42
48778;BME280;34578;0.000;0.000;2022-07-29T07:30:25;96574.78;;;20.53;67.89
48778;BME280;34578;0.000;0.000;2022-07-29T07:35:27;96575.69;;;20.50;67.53
48778;BME280;34578;0.000;0.000;2022-07-29T07:40:27;96585.78;;;20.59;67.90
48778;BME280;34578;0.000;0.000;2022-07-29T07:45:28;96594.31;;;20.52;67.90
48778;BME280;34578;0.000;0.000;2022-07-29T07:50:28;96594.94;;;20.74;67.72
48778;BME280;34578;0.000;0.000;2022-07-29T07:55:29;96605.88;;;20.80;66.90
48778;BME280;34578;0.000;0.000;2022-07-29T08:00:29;96607.56;;;20.81;66.38
48778;BME280;34578;0.000;0.000;2022-07-29T08:05:29;96610.97;;;20.83;66.38
48778;BME280;34578;0.000;0.000;2022-07-29T08:10:30;96606.69;;;20.85;66.14
48778;BME280;34578;0.000;0.000;2022-07-29T08:15:49;96595.66;;;20.86;65.81
48778;BME280;34578;0.000;0.000;2022-07-29T08:20:58;96600.75;;;20.86;66.01
48778;BME280;34578;0.000;0.000;2022-07-29T08:25:58;96588.84;;;20.88;65.80
48778;BME280;34578;0.000;0.000;2022-07-29T08:30:59;96595.38;;;21.10;65.60
48778;BME280;34578;0.000;0.000;2022-07-29T08:35:59;96591.06;;;21.15;65.15
48778;BME280;34578;0.000;0.000;2022-07-29T08:41:02;96594.59;;;21.07;64.69
48778;BME280;34578;0.000;0.000;2022-07-29T08:46:03;96595.50;;;21.01;64.81
48778;BME280;34578;0.000;0.000;2022-07-29T08:51:06;96599.75;;;20.99;65.29
48778;BME280;34578;0.000;0.000;2022-07-29T08:56:07;96601.47;;;20.97;64.81
48778;BME280;34578;0.000;0.000;2022-07-29T09:01:08;96604.00;;;20.99;64.78
48778;BME280;34578;0.000;0.000;2022-07-29T09:06:13;96598.09;;;20.97;65.00
48778;BME280;34578;0.000;0.000;2022-07-29T09:11:14;96610.84;;;20.97;64.64
48778;BME280;34578;0.000;0.000;2022-07-29T09:16:14;96604.03;;;20.97;64.97
48778;BME280;34578;0.000;0.000;2022-07-29T09:21:17;96600.38;;;21.19;64.90
48778;BME280;34578;0.000;0.000;2022-07-29T09:26:43;96580.88;;;21.17;64.54
48778;BME280;34578;0.000;0.000;2022-07-29T09:31:47;96610.59;;;21.16;63.92
48778;BME280;34578;0.000;0.000;2022-07-29T09:36:50;96599.69;;;21.05;64.37
48778;BME280;34578;0.000;0.000;2022-07-29T09:41:53;96609.00;;;21.06;64.39
48778;BME280;34578;0.000;0.000;2022-07-29T09:46:58;96598.88;;;21.03;64.25
48778;BME280;34578;0.000;0.000;2022-07-29T09:52:06;96608.19;;;21.03;64.09
48778;BME280;34578;0.000;0.000;2022-07-29T09:57:08;96598.91;;;21.00;64.24
48778;BME280;34578;0.000;0.000;2022-07-29T10:02:13;96601.41;;;21.02;64.34
48778;BME280;34578;0.000;0.000;2022-07-29T10:07:14;96606.44;;;21.08;64.98
48778;BME280;34578;0.000;0.000;2022-07-29T10:12:14;96603.66;;;21.27;64.64
48778;BME280;34578;0.000;0.000;2022-07-29T10:17:15;96598.50;;;21.32;63.92
48778;BME280;34578;0.000;0.000;2022-07-29T10:22:16;96599.44;;;21.23;63.40
48778;BME280;34578;0.000;0.000;2022-07-29T10:27:16;96591.94;;;21.14;63.90
48778;BME280;34578;0.000;0.000;2022-07-29T10:43:00;96602.22;;;21.08;63.95
48778;BME280;34578;0.000;0.000;2022-07-29T10:48:08;96603.03;;;21.07;64.13
48778;BME280;34578;0.000;0.000;2022-07-29T10:53:08;96603.91;;;21.08;64.20
48778;BME280;34578;0.000;0.000;2022-07-29T10:58:13;96609.75;;;21.16;64.15
48778;BME280;34578;0.000;0.000;2022-07-29T11:03:42;96613.72;;;21.36;63.74
48778;BME280;34578;0.000;0.000;2022-07-29T11:08:44;96604.41;;;21.35;63.26
48778;BME280;34578;0.000;0.000;2022-07-29T11:24:13;96603.78;;;21.15;63.83
48778;BME280;34578;0.000;0.000;2022-07-29T11:29:18;96604.66;;;21.16;63.71
48778;BME280;34578;0.000;0.000;2022-07-29T11:34:28;96612.28;;;21.14;63.59
48778;BME280;34578;0.000;0.000;2022-07-29T11:39:29;96619.13;;;21.12;63.75
48778;BME280;34578;0.000;0.000;2022-07-29T11:50:14;96613.78;;;21.30;63.14
48778;BME280;34578;0.000;0.000;2022-07-29T11:55:18;96612.81;;;21.42;63.01
48778;BME280;34578;0.000;0.000;2022-07-29T12:05:42;96610.56;;;21.19;63.00
48778;BME280;34578;0.000;0.000;2022-07-29T12:10:45;96623.28;;;21.21;63.13
48778;BME280;34578;0.000;0.000;2022-07-29T12:15:54;96619.06;;;21.18;63.25
48778;BME280;34578;0.000;0.000;2022-07-29T12:21:02;96624.16;;;21.15;63.42
48778;BME280;34578;0.000;0.000;2022-07-29T12:26:07;96630.97;;;21.16;63.27
48778;BME280;34578;0.000;0.000;2022-07-29T12:31:13;96635.19;;;21.16;63.36
48778;BME280;34578;0.000;0.000;2022-07-29T12:36:14;96631.78;;;21.18;63.47
48778;BME280;34578;0.000;0.000;2022-07-29T12:41:15;96640.00;;;21.38;63.15
48778;BME280;34578;0.000;0.000;2022-07-29T12:46:15;96639.94;;;21.46;62.77
48778;BME280;34578;0.000;0.000;2022-07-29T12:51:16;96634.94;;;21.37;62.63
48778;BME280;34578;0.000;0.000;2022-07-29T12:56:17;96639.31;;;21.27;62.95
48778;BME280;34578;0.000;0.000;2022-07-29T13:01:18;96632.56;;;21.23;63.05
48778;BME280;34578;0.000;0.000;2022-07-29T13:06:30;96630.88;;;21.22;63.22
48778;BME280;34578;0.000;0.000;2022-07-29T13:11:52;96625.78;;;21.22;63.23
48778;BME280;34578;0.000;0.000;2022-07-29T13:17:07;96624.16;;;21.18;63.03
48778;BME280;34578;0.000;0.000;2022-07-29T13:22:16;96604.75;;;21.07;63.37
48778;BME280;34578;0.000;0.000;2022-07-29T13:27:18;96625.78;;;21.22;63.50
48778;BME280;34578;0.000;0.000;2022-07-29T13:32:19;96619.56;;;21.44;62.87
48778;BME280;34578;0.000;0.000;2022-07-29T13:37:20;96620.31;;;21.49;62.27
48778;BME280;34578;0.000;0.000;2022-07-29T13:42:22;96615.41;;;21.37;62.63
48778;BME280;34578;0.000;0.000;2022-07-29T13:47:22;96617.13;;;21.35;62.81
48778;BME280;34578;0.000;0.000;2022-07-29T13:52:23;96614.59;;;21.34;62.45
48778;BME280;34578;0.000;0.000;2022-07-29T13:57:23;96608.69;;;21.33;62.21
48778;BME280;34578;0.000;0.000;2022-07-29T14:02:24;96616.38;;;21.29;62.51
48778;BME280;34578;0.000;0.000;2022-07-29T14:07:24;96610.44;;;21.28;62.28
48778;BME280;34578;0.000;0.000;2022-07-29T14:12:24;96615.53;;;21.28;62.36
48778;BME280;34578;0.000;0.000;2022-07-29T14:17:25;96625.59;;;21.37;62.42
48778;BME280;34578;0.000;0.000;2022-07-29T14:22:25;96614.47;;;21.46;62.04
48778;BME280;34578;0.000;0.000;2022-07-29T14:27:26;96618.59;;;21.53;61.73
48778;BME280;34578;0.000;0.000;2022-07-29T14:32:26;96626.41;;;21.41;61.99
48778;BME280;34578;0.000;0.000;2022-07-29T14:37:26;96634.97;;;21.35;62.15
48778;BME280;34578;0.000;0.000;2022-07-29T14:42:27;96635.84;;;21.31;62.09
48778;BME280;34578;0.000;0.000;2022-07-29T14:47:27;96632.47;;;21.29;62.18
48778;BME280;34578;0.000;0.000;2022-07-29T14:52:27;96637.53;;;21.32;61.58
48778;BME280;34578;0.000;0.000;2022-07-29T14:57:28;96644.34;;;21.30;61.44
48778;BME280;34578;0.000;0.000;2022-07-29T15:02:28;96645.16;;;21.32;61.67
48778;BME280;34578;0.000;0.000;2022-07-29T15:07:29;96645.91;;;21.40;59.82
48778;BME280;34578;0.000;0.000;2022-07-29T15:12:30;96647.41;;;21.56;58.90
48778;BME280;34578;0.000;0.000;2022-07-29T15:17:30;96654.22;;;21.56;60.03
48778;BME280;34578;0.000;0.000;2022-07-29T15:22:31;96647.53;;;21.47;59.56
48778;BME280;34578;0.000;0.000;2022-07-29T15:27:31;96648.47;;;21.42;59.78
48778;BME280;34578;0.000;0.000;2022-07-29T15:32:31;96646.81;;;21.38;60.27
48778;BME280;34578;0.000;0.000;2022-07-29T15:37:32;96643.41;;;21.37;59.85
48778;BME280;34578;0.000;0.000;2022-07-29T15:42:35;96645.97;;;21.37;59.05
48778;BME280;34578;0.000;0.000;2022-07-29T15:47:36;96641.75;;;21.35;59.29
48778;BME280;34578;0.000;0.000;2022-07-29T15:52:36;96645.16;;;21.32;60.31
48778;BME280;34578;0.000;0.000;2022-07-29T15:57:36;96639.94;;;21.43;56.77
48778;BME280;34578;0.000;0.000;2022-07-29T16:02:37;96634.66;;;21.56;56.64
48778;BME280;34578;0.000;0.000;2022-07-29T16:07:37;96638.09;;;21.55;58.89
48778;BME280;34578;0.000;0.000;2022-07-29T16:12:38;96639.94;;;21.46;58.91
48778;BME280;34578;0.000;0.000;2022-07-29T16:17:38;96632.31;;;21.43;58.64
48778;BME280;34578;0.000;0.000;2022-07-29T16:22:38;96623.84;;;21.41;58.36
48778;BME280;34578;0.000;0.000;2022-07-29T16:27:39;96627.28;;;21.37;59.42
48778;BME280;34578;0.000;0.000;2022-07-29T16:32:39;96627.31;;;21.35;58.30
48778;BME280;34578;0.000;0.000;2022-07-29T16:37:39;96618.00;;;21.34;59.73
48778;BME280;34578;0.000;0.000;2022-07-29T16:42:40;96617.84;;;21.45;57.86
48778;BME280;34578;0.000;0.000;2022-07-29T16:47:40;96619.38;;;21.59;56.69
48778;BME280;34578;0.000;0.000;2022-07-29T16:52:41;96620.25;;;21.55;59.30
48778;BME280;34578;0.000;0.000;2022-07-29T16:57:41;96629.75;;;21.46;59.18
48778;BME280;34578;0.000;0.000;2022-07-29T17:02:42;96617.03;;;21.41;59.29
48778;BME280;34578;0.000;0.000;2022-07-29T17:07:43;96611.19;;;21.35;60.31
48778;BME280;34578;0.000;0.000;2022-07-29T17:12:43;96619.75;;;21.31;61.13
48778;BME280;34578;0.000;0.000;2022-07-29T17:17:44;96618.06;;;21.28;60.93
48778;BME280;34578;0.000;0.000;2022-07-29T17:22:46;96624.84;;;21.29;61.14
48778;BME280;34578;0.000;0.000;2022-07-29T17:27:48;96634.16;;;21.30;60.99
48778;BME280;34578;0.000;0.000;2022-07-29T17:32:49;96639.13;;;21.41;57.85
48778;BME280;34578;0.000;0.000;2022-07-29T17:37:50;96634.66;;;21.58;55.19
48778;BME280;34578;0.000;0.000;2022-07-29T17:42:50;96635.50;;;21.58;58.92
48778;BME280;34578;0.000;0.000;2022-07-29T17:47:51;96640.72;;;21.49;58.58
48778;BME280;34578;0.000;0.000;2022-07-29T17:52:51;96637.50;;;21.35;57.19
48778;BME280;34578;0.000;0.000;2022-07-29T17:57:52;96650.19;;;21.40;58.50
48778;BME280;34578;0.000;0.000;2022-07-29T18:02:52;96652.69;;;21.41;58.56
48778;BME280;34578;0.000;0.000;2022-07-29T18:07:52;96645.09;;;21.38;57.82
48778;BME280;34578;0.000;0.000;2022-07-29T18:12:54;96662.75;;;21.53;55.56
48778;BME280;34578;0.000;0.000;2022-07-29T18:17:55;96657.50;;;21.67;55.38
48778;BME280;34578;0.000;0.000;2022-07-29T18:22:56;96665.16;;;21.62;58.86
48778;BME280;34578;0.000;0.000;2022-07-29T18:27:56;96663.63;;;21.49;58.27
48778;BME280;34578;0.000;0.000;2022-07-29T18:32:57;96667.09;;;21.45;58.75
48778;BME280;34578;0.000;0.000;2022-07-29T18:37:57;96673.97;;;21.39;59.83
48778;BME280;34578;0.000;0.000;2022-07-29T18:42:57;96676.53;;;21.37;60.26
48778;BME280;34578;0.000;0.000;2022-07-29T18:47:58;96674.91;;;21.33;60.71
48778;BME280;34578;0.000;0.000;2022-07-29T18:52:58;96676.59;;;21.31;60.87
48778;BME280;34578;0.000;0.000;2022-07-29T18:58:00;96684.22;;;21.31;61.12
48778;BME280;34578;0.000;0.000;2022-07-29T19:03:01;96684.00;;;21.49;57.74
48778;BME280;34578;0.000;0.000;2022-07-29T19:08:02;96699.97;;;21.63;57.17
48778;BME280;34578;0.000;0.000;2022-07-29T19:13:02;96696.66;;;21.58;59.54
48778;BME280;34578;0.000;0.000;2022-07-29T19:18:03;96696.00;;;21.43;59.48
48778;BME280;34578;0.000;0.000;2022-07-29T19:23:03;96712.13;;;21.40;60.23
48778;BME280;34578;0.000;0.000;2022-07-29T19:28:04;96719.81;;;21.39;60.48
48778;BME280;34578;0.000;0.000;2022-07-29T19:33:04;96728.31;;;21.38;60.50
48778;BME280;34578;0.000;0.000;2022-07-29T19:38:04;96734.28;;;21.35;60.50
48778;BME280;34578;0.000;0.000;2022-07-29T19:43:05;96737.66;;;21.36;60.66
48778;BME280;34578;0.000;0.000;2022-07-29T19:48:05;96729.31;;;21.23;60.53
48778;BME280;34578;0.000;0.000;2022-07-29T19:53:06;96742.59;;;21.52;57.19
48778;BME280;34578;0.000;0.000;2022-07-29T19:58:06;96742.47;;;21.61;57.31
48778;BME280;34578;0.000;0.000;2022-07-29T20:03:07;96756.94;;;21.59;59.42
48778;BME280;34578;0.000;0.000;2022-07-29T20:08:08;96753.66;;;21.48;59.12
48778;BME280;34578;0.000;0.000;2022-07-29T20:13:09;96758.81;;;21.44;59.83
48778;BME280;34578;0.000;0.000;2022-07-29T20:18:09;96754.28;;;20.85;57.92
48778;BME280;34578;0.000;0.000;2022-07-29T20:23:09;96757.03;;;20.61;56.05
48778;BME280;34578;0.000;0.000;2022-07-29T20:28:10;96759.59;;;20.55;55.48
48778;BME280;34578;0.000;0.000;2022-07-29T20:33:11;96751.97;;;20.55;56.83
48778;BME280;34578;0.000;0.000;2022-07-29T20:38:11;96768.28;;;20.26;56.46
48778;BME280;34578;0.000;0.000;2022-07-29T20:43:12;96767.50;;;20.18;56.71
48778;BME280;34578;0.000;0.000;2022-07-29T20:48:12;96753.97;;;20.18;56.36
48778;BME280;34578;0.000;0.000;2022-07-29T20:53:16;96765.88;;;20.10;56.43
48778;BME280;34578;0.000;0.000;2022-07-29T20:58:18;96764.06;;;20.24;57.23
48778;BME280;34578;0.000;0.000;2022-07-29T21:03:18;96758.22;;;20.07;56.40
48778;BME280;34578;0.000;0.000;2022-07-29T21:08:19;96765.03;;;19.99;56.18
48778;BME280;34578;0.000;0.000;2022-07-29T21:13:19;96760.81;;;20.01;56.13
48778;BME280;34578;0.000;0.000;2022-07-29T21:18:22;96762.50;;;20.08;55.87
48778;BME280;34578;0.000;0.000;2022-07-29T21:23:36;96760.78;;;20.10;55.25
48778;BME280;34578;0.000;0.000;2022-07-29T21:28:36;96770.88;;;20.16;54.93
48778;BME280;34578;0.000;0.000;2022-07-29T21:33:42;96768.41;;;19.99;54.92
48778;BME280;34578;0.000;0.000;2022-07-29T21:38:42;96760.78;;;20.07;55.09
48778;BME280;34578;0.000;0.000;2022-07-29T21:43:43;96772.66;;;19.99;54.95
48778;BME280;34578;0.000;0.000;2022-07-29T21:48:45;96764.22;;;19.95;55.20
48778;BME280;34578;0.000;0.000;2022-07-29T21:53:45;96770.97;;;19.93;55.27
48778;BME280;34578;0.000;0.000;2022-07-29T21:58:45;96773.47;;;20.02;55.59
48778;BME280;34578;0.000;0.000;2022-07-29T22:03:46;96771.06;;;19.80;55.26
48778;BME280;34578;0.000;0.000;2022-07-29T22:08:46;96772.72;;;19.87;55.59
48778;BME280;34578;0.000;0.000;2022-07-29T22:13:47;96770.19;;;19.82;55.71
48778;BME280;34578;0.000;0.000;2022-07-29T22:18:47;96785.44;;;19.84;55.04
48778;BME280;34578;0.000;0.000;2022-07-29T22:23:48;96785.41;;;19.91;55.55
48778;BME280;34578;0.000;0.000;2022-07-29T22:28:48;96789.66;;;19.88;55.38
48778;BME280;34578;0.000;0.000;2022-07-29T22:33:50;96783.72;;;19.90;55.55
48778;BME280;34578;0.000;0.000;2022-07-29T22:38:50;96793.03;;;19.87;54.95
48778;BME280;34578;0.000;0.000;2022-07-29T22:43:50;96797.25;;;19.94;54.90
48778;BME280;34578;0.000;0.000;2022-07-29T22:48:51;96781.97;;;19.98;55.23
48778;BME280;34578;0.000;0.000;2022-07-29T22:53:52;96788.03;;;19.75;55.20
48778;BME280;34578;0.000;0.000;2022-07-29T22:58:52;96794.78;;;19.79;55.12
48778;BME280;34578;0.000;0.000;2022-07-29T23:03:54;96804.91;;;19.85;55.29
48778;BME280;34578;0.000;0.000;2022-07-29T23:08:54;96806.59;;;19.86;55.29
48778;BME280;34578;0.000;0.000;2022-07-29T23:13:55;96799.03;;;19.65;55.24
48778;BME280;34578;0.000;0.000;2022-07-29T23:18:55;96812.56;;;19.77;55.34
48778;BME280;34578;0.000;0.000;2022-07-29T23:23:56;96816.78;;;19.81;55.18
48778;BME280;34578;0.000;0.000;2022-07-29T23:28:56;96825.28;;;19.76;54.55
48778;BME280;34578;0.000;0.000;2022-07-29T23:33:56;96830.34;;;19.79;54.76
48778;BME280;34578;0.000;0.000;2022-07-29T23:38:57;96825.25;;;19.79;55.09
48778;BME280;34578;0.000;0.000;2022-07-29T23:43:57;96817.72;;;19.58;55.05
48778;BME280;34578;0.000;0.000;2022-07-29T23:48:58;96832.06;;;19.72;55.16
48778;BME280;34578;0.000;0.000;2022-07-29T23:53:58;96837.13;;;19.71;54.71
48778;BME280;34578;0.000;0.000;2022-07-29T23:58:59;96838.00;;;19.67;55.21
